sensor_id;sensor_type;location;lat;lon;timestamp;pressure;altitude;pressure_sealevel;temperature;humidity
64967;BME280;51710;38.732;-121.358;2023-11-21T00:02:08;101874.91;;;18.35;48.26
64967;BME280;51710;38.732;-121.358;2023-11-21T00:04:34;101875.78;;;18.27;48.45
64967;BME280;51710;38.732;-121.358;2023-11-21T00:07:00;101867.59;;;18.21;48.36
64967;BME280;51710;38.732;-121.358;2023-11-21T00:09:26;101866.25;;;18.17;48.45
64967;BME280;51710;38.732;-121.358;2023-11-21T00:11:53;101869.69;;;18.11;48.54
64967;BME280;51710;38.732;-121.358;2023-11-21T00:14:19;101867.34;;;18.08;48.32
64967;BME280;51710;38.732;-121.358;2023-11-21T00:16:45;101871.78;;;18.01;48.69
64967;BME280;51710;38.732;-121.358;2023-11-21T00:19:12;101874.16;;;17.95;48.67
64967;BME280;51710;38.732;-121.358;2023-11-21T00:21:38;101876.38;;;17.92;48.78
64967;BME280;51710;38.732;-121.358;2023-11-21T00:24:04;101870.81;;;17.85;49.07
64967;BME280;51710;38.732;-121.358;2023-11-21T00:26:31;101874.22;;;17.79;48.99
64967;BME280;51710;38.732;-121.358;2023-11-21T00:29:02;101872.41;;;17.72;49.23
64967;BME280;51710;38.732;-121.358;2023-11-21T00:31:28;101872.28;;;17.65;49.60
64967;BME280;51710;38.732;-121.358;2023-11-21T00:33:56;101873.81;;;17.60;49.51
64967;BME280;51710;38.732;-121.358;2023-11-21T00:36:22;101875.16;;;17.56;49.83
64967;BME280;51710;38.732;-121.358;2023-11-21T00:38:49;101870.66;;;17.48;49.71
64967;BME280;51710;38.732;-121.358;2023-11-21T00:41:15;101867.78;;;17.42;49.86
64967;BME280;51710;38.732;-121.358;2023-11-21T00:43:41;101879.06;;;17.37;50.20
64967;BME280;51710;38.732;-121.358;2023-11-21T00:46:07;101884.81;;;17.34;50.04
64967;BME280;51710;38.732;-121.358;2023-11-21T00:48:34;101883.47;;;17.30;50.57
64967;BME280;51710;38.732;-121.358;2023-11-21T00:51:00;101880.47;;;17.25;50.77
64967;BME280;51710;38.732;-121.358;2023-11-21T00:53:27;101881.97;;;17.20;51.02
64967;BME280;51710;38.732;-121.358;2023-11-21T00:55:53;101884.19;;;17.08;51.05
64967;BME280;51710;38.732;-121.358;2023-11-21T00:58:24;101882.53;;;16.91;51.69
64967;BME280;51710;38.732;-121.358;2023-11-21T01:00:50;101884.03;;;16.77;51.94
64967;BME280;51710;38.732;-121.358;2023-11-21T01:03:17;101880.34;;;16.70;52.52
64967;BME280;51710;38.732;-121.358;2023-11-21T01:05:43;101882.72;;;16.65;52.57
64967;BME280;51710;38.732;-121.358;2023-11-21T01:08:09;101890.28;;;16.54;52.75
64967;BME280;51710;38.732;-121.358;2023-11-21T01:10:36;101889.53;;;16.28;52.64
64967;BME280;51710;38.732;-121.358;2023-11-21T01:13:03;101881.75;;;16.01;53.39
64967;BME280;51710;38.732;-121.358;2023-11-21T01:15:33;101882.34;;;15.78;53.88
64967;BME280;51710;38.732;-121.358;2023-11-21T01:18:00;101884.59;;;15.57;54.31
64967;BME280;51710;38.732;-121.358;2023-11-21T01:20:26;101884.47;;;15.33;55.34
64967;BME280;51710;38.732;-121.358;2023-11-21T01:22:52;101881.09;;;15.06;56.08
64967;BME280;51710;38.732;-121.358;2023-11-21T01:25:22;101880.47;;;14.86;56.54
64967;BME280;51710;38.732;-121.358;2023-11-21T01:27:48;101888.22;;;14.72;57.03
64967;BME280;51710;38.732;-121.358;2023-11-21T01:30:14;101892.38;;;14.66;57.19
64967;BME280;51710;38.732;-121.358;2023-11-21T01:32:42;101892.28;;;14.58;57.26
64967;BME280;51710;38.732;-121.358;2023-11-21T01:35:09;101891.69;;;14.46;57.98
64967;BME280;51710;38.732;-121.358;2023-11-21T01:37:37;101895.75;;;14.33;58.51
64967;BME280;51710;38.732;-121.358;2023-11-21T01:40:03;101889.56;;;14.23;58.83
64967;BME280;51710;38.732;-121.358;2023-11-21T01:42:34;101887.66;;;14.15;59.25
64967;BME280;51710;38.732;-121.358;2023-11-21T01:45:01;101888.81;;;14.13;59.48
64967;BME280;51710;38.732;-121.358;2023-11-21T01:47:32;101889.34;;;14.16;59.51
64967;BME280;51710;38.732;-121.358;2023-11-21T01:49:59;101889.19;;;14.18;59.51
64967;BME280;51710;38.732;-121.358;2023-11-21T01:52:26;101891.31;;;14.14;59.70
64967;BME280;51710;38.732;-121.358;2023-11-21T01:54:53;101891.31;;;13.97;59.89
64967;BME280;51710;38.732;-121.358;2023-11-21T01:57:20;101886.66;;;13.72;60.57
64967;BME280;51710;38.732;-121.358;2023-11-21T01:59:48;101886.59;;;13.54;60.88
64967;BME280;51710;38.732;-121.358;2023-11-21T02:02:15;101880.72;;;13.50;61.21
64967;BME280;51710;38.732;-121.358;2023-11-21T02:04:42;101883.78;;;13.55;61.43
64967;BME280;51710;38.732;-121.358;2023-11-21T02:07:08;101890.22;;;13.63;61.49
64967;BME280;51710;38.732;-121.358;2023-11-21T02:09:36;101892.22;;;13.61;61.46
64967;BME280;51710;38.732;-121.358;2023-11-21T02:12:08;101888.91;;;13.49;61.84
64967;BME280;51710;38.732;-121.358;2023-11-21T02:14:36;101890.63;;;13.40;62.01
64967;BME280;51710;38.732;-121.358;2023-11-21T02:17:03;101892.88;;;13.35;62.15
64967;BME280;51710;38.732;-121.358;2023-11-21T02:19:30;101891.34;;;13.23;62.48
64967;BME280;51710;38.732;-121.358;2023-11-21T02:21:59;101887.31;;;13.10;62.64
64967;BME280;51710;38.732;-121.358;2023-11-21T02:24:32;101879.56;;;12.97;63.31
64967;BME280;51710;38.732;-121.358;2023-11-21T02:26:58;101878.75;;;12.87;63.54
64967;BME280;51710;38.732;-121.358;2023-11-21T02:29:25;101879.19;;;12.73;63.83
64967;BME280;51710;38.732;-121.358;2023-11-21T02:31:55;101882.59;;;12.56;64.38
64967;BME280;51710;38.732;-121.358;2023-11-21T02:34:22;101879.91;;;12.46;64.81
64967;BME280;51710;38.732;-121.358;2023-11-21T02:36:50;101893.56;;;12.43;65.28
64967;BME280;51710;38.732;-121.358;2023-11-21T02:39:17;101886.53;;;12.42;64.83
64967;BME280;51710;38.732;-121.358;2023-11-21T02:41:47;101887.09;;;12.46;65.29
64967;BME280;51710;38.732;-121.358;2023-11-21T02:44:14;101894.69;;;12.51;65.36
64967;BME280;51710;38.732;-121.358;2023-11-21T02:46:40;101893.97;;;12.48;66.04
64967;BME280;51710;38.732;-121.358;2023-11-21T02:49:07;101901.44;;;12.45;65.47
64967;BME280;51710;38.732;-121.358;2023-11-21T02:51:36;101896.81;;;12.37;65.78
64967;BME280;51710;38.732;-121.358;2023-11-21T02:54:04;101889.91;;;12.35;66.10
64967;BME280;51710;38.732;-121.358;2023-11-21T02:56:32;101892.44;;;12.27;66.20
64967;BME280;51710;38.732;-121.358;2023-11-21T02:59:00;101892.97;;;12.21;66.32
64967;BME280;51710;38.732;-121.358;2023-11-21T03:01:27;101900.72;;;12.24;66.29
64967;BME280;51710;38.732;-121.358;2023-11-21T03:03:54;101902.94;;;12.19;66.61
64967;BME280;51710;38.732;-121.358;2023-11-21T03:06:21;101907.88;;;12.14;66.54
64967;BME280;51710;38.732;-121.358;2023-11-21T03:08:48;101909.97;;;12.01;66.44
64967;BME280;51710;38.732;-121.358;2023-11-21T03:11:14;101898.28;;;11.92;66.84
64967;BME280;51710;38.732;-121.358;2023-11-21T03:13:41;101908.41;;;11.89;67.42
64967;BME280;51710;38.732;-121.358;2023-11-21T03:16:09;101899.25;;;11.91;67.39
64967;BME280;51710;38.732;-121.358;2023-11-21T03:18:37;101896.75;;;11.99;67.53
64967;BME280;51710;38.732;-121.358;2023-11-21T03:21:06;101892.00;;;12.03;67.25
64967;BME280;51710;38.732;-121.358;2023-11-21T03:23:35;101891.00;;;12.04;67.42
64967;BME280;51710;38.732;-121.358;2023-11-21T03:26:02;101895.19;;;11.97;67.48
64967;BME280;51710;38.732;-121.358;2023-11-21T03:28:28;101905.16;;;11.85;67.59
64967;BME280;51710;38.732;-121.358;2023-11-21T03:30:56;101912.41;;;11.74;67.89
64967;BME280;51710;38.732;-121.358;2023-11-21T03:33:22;101912.50;;;11.63;67.88
64967;BME280;51710;38.732;-121.358;2023-11-21T03:35:48;101912.31;;;11.55;67.84
64967;BME280;51710;38.732;-121.358;2023-11-21T03:38:15;101916.03;;;11.43;69.13
64967;BME280;51710;38.732;-121.358;2023-11-21T03:40:42;101922.09;;;11.45;68.79
64967;BME280;51710;38.732;-121.358;2023-11-21T03:43:08;101928.44;;;11.53;68.99
64967;BME280;51710;38.732;-121.358;2023-11-21T03:45:34;101930.69;;;11.58;68.81
64967;BME280;51710;38.732;-121.358;2023-11-21T03:48:00;101932.41;;;11.59;68.68
64967;BME280;51710;38.732;-121.358;2023-11-21T03:50:29;101930.69;;;11.58;68.91
64967;BME280;51710;38.732;-121.358;2023-11-21T03:52:55;101935.06;;;11.59;69.20
64967;BME280;51710;38.732;-121.358;2023-11-21T03:55:21;101932.53;;;11.57;68.73
64967;BME280;51710;38.732;-121.358;2023-11-21T03:57:49;101944.75;;;11.60;69.04
64967;BME280;51710;38.732;-121.358;2023-11-21T04:00:16;101944.75;;;11.60;68.92
64967;BME280;51710;38.732;-121.358;2023-11-21T04:02:42;101945.88;;;11.57;69.05
64967;BME280;51710;38.732;-121.358;2023-11-21T04:05:09;101944.28;;;11.45;68.64
64967;BME280;51710;38.732;-121.358;2023-11-21T04:07:35;101949.41;;;11.37;68.98
64967;BME280;51710;38.732;-121.358;2023-11-21T04:10:05;101956.97;;;11.32;69.84
64967;BME280;51710;38.732;-121.358;2023-11-21T04:12:37;101960.28;;;11.24;69.85
64967;BME280;51710;38.732;-121.358;2023-11-21T04:15:03;101959.97;;;11.18;69.73
64967;BME280;51710;38.732;-121.358;2023-11-21T04:17:30;101951.53;;;11.13;69.44
64967;BME280;51710;38.732;-121.358;2023-11-21T04:19:56;101965.38;;;11.07;69.86
64967;BME280;51710;38.732;-121.358;2023-11-21T04:22:22;101976.41;;;11.02;70.06
64967;BME280;51710;38.732;-121.358;2023-11-21T04:24:49;101973.56;;;10.94;69.85
64967;BME280;51710;38.732;-121.358;2023-11-21T04:27:15;101979.66;;;10.85;69.65
64967;BME280;51710;38.732;-121.358;2023-11-21T04:29:42;101966.84;;;10.79;70.64
64967;BME280;51710;38.732;-121.358;2023-11-21T04:32:08;101972.22;;;10.68;70.73
64967;BME280;51710;38.732;-121.358;2023-11-21T04:34:35;101975.50;;;10.61;71.42
64967;BME280;51710;38.732;-121.358;2023-11-21T04:37:01;101984.72;;;10.57;71.24
64967;BME280;51710;38.732;-121.358;2023-11-21T04:39:28;101993.97;;;10.53;71.72
64967;BME280;51710;38.732;-121.358;2023-11-21T04:41:55;101998.31;;;10.54;71.30
64967;BME280;51710;38.732;-121.358;2023-11-21T04:44:21;102006.16;;;10.55;71.65
64967;BME280;51710;38.732;-121.358;2023-11-21T04:46:47;102004.47;;;10.54;71.17
64967;BME280;51710;38.732;-121.358;2023-11-21T04:49:14;102008.09;;;10.53;71.38
64967;BME280;51710;38.732;-121.358;2023-11-21T04:51:41;102002.91;;;10.52;71.13
64967;BME280;51710;38.732;-121.358;2023-11-21T04:54:07;102014.91;;;10.46;71.79
64967;BME280;51710;38.732;-121.358;2023-11-21T04:56:33;102012.63;;;10.42;71.42
64967;BME280;51710;38.732;-121.358;2023-11-21T04:58:59;102011.16;;;10.38;71.36
64967;BME280;51710;38.732;-121.358;2023-11-21T05:01:25;102007.19;;;10.32;71.84
64967;BME280;51710;38.732;-121.358;2023-11-21T05:03:52;102014.47;;;10.30;72.35
64967;BME280;51710;38.732;-121.358;2023-11-21T05:06:18;102013.47;;;10.31;72.55
64967;BME280;51710;38.732;-121.358;2023-11-21T05:08:45;102020.00;;;10.27;71.98
64967;BME280;51710;38.732;-121.358;2023-11-21T05:11:26;102019.31;;;10.25;71.99
64967;BME280;51710;38.732;-121.358;2023-11-21T05:13:53;102016.88;;;10.22;72.23
64967;BME280;51710;38.732;-121.358;2023-11-21T05:16:21;102025.00;;;10.20;72.86
64967;BME280;51710;38.732;-121.358;2023-11-21T05:18:48;102034.44;;;10.13;73.02
64967;BME280;51710;38.732;-121.358;2023-11-21T05:21:16;102033.31;;;10.05;72.95
64967;BME280;51710;38.732;-121.358;2023-11-21T05:23:42;102030.66;;;10.05;73.44
64967;BME280;51710;38.732;-121.358;2023-11-21T05:26:08;102030.53;;;10.06;73.38
64967;BME280;51710;38.732;-121.358;2023-11-21T05:28:34;102033.31;;;10.05;73.45
64967;BME280;51710;38.732;-121.358;2023-11-21T05:31:01;102032.84;;;10.00;73.67
64967;BME280;51710;38.732;-121.358;2023-11-21T05:33:27;102037.31;;;9.99;73.48
64967;BME280;51710;38.732;-121.358;2023-11-21T05:35:53;102033.09;;;9.97;73.76
64967;BME280;51710;38.732;-121.358;2023-11-21T05:38:19;102037.44;;;9.98;73.68
64967;BME280;51710;38.732;-121.358;2023-11-21T05:40:47;102040.22;;;9.96;74.11
64967;BME280;51710;38.732;-121.358;2023-11-21T05:43:13;102041.78;;;9.99;73.97
64967;BME280;51710;38.732;-121.358;2023-11-21T05:45:41;102040.69;;;10.01;73.97
64967;BME280;51710;38.732;-121.358;2023-11-21T05:48:07;102043.50;;;10.00;74.06
64967;BME280;51710;38.732;-121.358;2023-11-21T05:50:33;102042.03;;;9.96;73.99
64967;BME280;51710;38.732;-121.358;2023-11-21T05:53:00;102042.88;;;9.96;74.02
64967;BME280;51710;38.732;-121.358;2023-11-21T05:55:26;102048.31;;;9.95;73.79
64967;BME280;51710;38.732;-121.358;2023-11-21T05:57:52;102051.25;;;9.92;74.08
64967;BME280;51710;38.732;-121.358;2023-11-21T06:00:20;102046.13;;;9.89;73.82
64967;BME280;51710;38.732;-121.358;2023-11-21T06:02:51;102044.44;;;9.88;73.86
64967;BME280;51710;38.732;-121.358;2023-11-21T06:05:20;102051.44;;;9.89;73.61
64967;BME280;51710;38.732;-121.358;2023-11-21T06:07:49;102048.91;;;9.87;74.42
64967;BME280;51710;38.732;-121.358;2023-11-21T06:10:15;102048.56;;;9.81;74.40
64967;BME280;51710;38.732;-121.358;2023-11-21T06:12:43;102049.03;;;9.75;74.20
64967;BME280;51710;38.732;-121.358;2023-11-21T06:15:10;102047.59;;;9.71;74.47
64967;BME280;51710;38.732;-121.358;2023-11-21T06:17:41;102052.41;;;9.66;74.86
64967;BME280;51710;38.732;-121.358;2023-11-21T06:20:11;102051.91;;;9.61;74.61
64967;BME280;51710;38.732;-121.358;2023-11-21T06:22:41;102060.84;;;9.60;74.94
64967;BME280;51710;38.732;-121.358;2023-11-21T06:25:09;102060.63;;;9.63;75.03
64967;BME280;51710;38.732;-121.358;2023-11-21T06:27:38;102056.16;;;9.63;74.92
64967;BME280;51710;38.732;-121.358;2023-11-21T06:30:06;102060.00;;;9.59;74.85
64967;BME280;51710;38.732;-121.358;2023-11-21T06:32:34;102053.34;;;9.54;75.14
64967;BME280;51710;38.732;-121.358;2023-11-21T06:35:02;102051.66;;;9.53;75.04
64967;BME280;51710;38.732;-121.358;2023-11-21T06:37:30;102052.38;;;9.55;75.32
64967;BME280;51710;38.732;-121.358;2023-11-21T06:39:56;102054.94;;;9.56;75.21
64967;BME280;51710;38.732;-121.358;2023-11-21T06:42:24;102060.84;;;9.60;75.37
64967;BME280;51710;38.732;-121.358;2023-11-21T06:44:51;102060.84;;;9.60;75.40
64967;BME280;51710;38.732;-121.358;2023-11-21T06:47:18;102053.84;;;9.59;75.24
64967;BME280;51710;38.732;-121.358;2023-11-21T06:49:46;102058.31;;;9.58;75.44
64967;BME280;51710;38.732;-121.358;2023-11-21T06:52:14;102056.72;;;9.56;75.46
64967;BME280;51710;38.732;-121.358;2023-11-21T06:54:40;102058.56;;;9.55;75.50
64967;BME280;51710;38.732;-121.358;2023-11-21T06:57:06;102060.50;;;9.53;75.51
64967;BME280;51710;38.732;-121.358;2023-11-21T06:59:33;102059.16;;;9.48;75.69
64967;BME280;51710;38.732;-121.358;2023-11-21T07:01:59;102061.81;;;9.48;75.52
64967;BME280;51710;38.732;-121.358;2023-11-21T07:04:25;102059.47;;;9.43;75.58
64967;BME280;51710;38.732;-121.358;2023-11-21T07:06:53;102065.03;;;9.40;75.95
64967;BME280;51710;38.732;-121.358;2023-11-21T07:09:20;102066.13;;;9.38;75.46
64967;BME280;51710;38.732;-121.358;2023-11-21T07:11:52;102066.13;;;9.38;75.77
64967;BME280;51710;38.732;-121.358;2023-11-21T07:14:18;102067.69;;;9.40;75.65
64967;BME280;51710;38.732;-121.358;2023-11-21T07:16:46;102066.13;;;9.38;75.59
64967;BME280;51710;38.732;-121.358;2023-11-21T07:19:15;102060.94;;;9.36;75.59
64967;BME280;51710;38.732;-121.358;2023-11-21T07:21:41;102064.66;;;9.34;75.30
64967;BME280;51710;38.732;-121.358;2023-11-21T07:24:08;102061.25;;;9.32;76.03
64967;BME280;51710;38.732;-121.358;2023-11-21T07:26:35;102067.28;;;9.23;75.80
64967;BME280;51710;38.732;-121.358;2023-11-21T07:29:02;102068.19;;;9.10;75.80
64967;BME280;51710;38.732;-121.358;2023-11-21T07:31:28;102068.66;;;9.04;76.08
64967;BME280;51710;38.732;-121.358;2023-11-21T07:33:55;102068.03;;;9.01;76.45
64967;BME280;51710;38.732;-121.358;2023-11-21T07:36:24;102070.59;;;9.02;76.41
64967;BME280;51710;38.732;-121.358;2023-11-21T07:38:50;102068.66;;;9.04;76.52
64967;BME280;51710;38.732;-121.358;2023-11-21T07:41:20;102071.81;;;9.09;76.41
64967;BME280;51710;38.732;-121.358;2023-11-21T07:43:48;102067.47;;;9.08;76.42
64967;BME280;51710;38.732;-121.358;2023-11-21T07:46:14;102066.50;;;9.09;75.89
64967;BME280;51710;38.732;-121.358;2023-11-21T07:48:44;102070.34;;;9.05;76.00
64967;BME280;51710;38.732;-121.358;2023-11-21T07:51:11;102067.19;;;9.00;75.87
64967;BME280;51710;38.732;-121.358;2023-11-21T07:53:38;102070.09;;;8.97;75.91
64967;BME280;51710;38.732;-121.358;2023-11-21T07:56:07;102079.97;;;8.95;75.99
64967;BME280;51710;38.732;-121.358;2023-11-21T07:58:36;102085.53;;;8.92;76.24
64967;BME280;51710;38.732;-121.358;2023-11-21T08:01:03;102081.38;;;8.88;76.10
64967;BME280;51710;38.732;-121.358;2023-11-21T08:03:30;102092.25;;;8.85;76.22
64967;BME280;51710;38.732;-121.358;2023-11-21T08:05:57;102089.66;;;8.84;76.28
64967;BME280;51710;38.732;-121.358;2023-11-21T08:08:24;102085.34;;;8.83;76.42
64967;BME280;51710;38.732;-121.358;2023-11-21T08:10:51;102092.25;;;8.85;76.58
64967;BME280;51710;38.732;-121.358;2023-11-21T08:13:27;102094.78;;;8.87;76.03
64967;BME280;51710;38.732;-121.358;2023-11-21T08:15:55;102092.25;;;8.85;76.22
64967;BME280;51710;38.732;-121.358;2023-11-21T08:18:22;102090.66;;;8.83;76.48
64967;BME280;51710;38.732;-121.358;2023-11-21T08:20:48;102095.44;;;8.78;76.22
64967;BME280;51710;38.732;-121.358;2023-11-21T08:23:15;102088.78;;;8.72;76.00
64967;BME280;51710;38.732;-121.358;2023-11-21T08:25:45;102087.91;;;8.72;76.05
64967;BME280;51710;38.732;-121.358;2023-11-21T08:28:12;102085.38;;;8.70;76.34
64967;BME280;51710;38.732;-121.358;2023-11-21T08:30:42;102098.78;;;8.69;76.76
64967;BME280;51710;38.732;-121.358;2023-11-21T08:33:08;102092.72;;;8.67;76.34
64967;BME280;51710;38.732;-121.358;2023-11-21T08:35:35;102097.19;;;8.66;76.69
64967;BME280;51710;38.732;-121.358;2023-11-21T08:38:04;102093.91;;;8.63;76.78
64967;BME280;51710;38.732;-121.358;2023-11-21T08:40:30;102091.88;;;8.66;77.15
64967;BME280;51710;38.732;-121.358;2023-11-21T08:42:57;102089.94;;;8.68;77.18
64967;BME280;51710;38.732;-121.358;2023-11-21T08:45:25;102096.00;;;8.70;76.89
64967;BME280;51710;38.732;-121.358;2023-11-21T08:47:52;102100.88;;;8.76;77.06
64967;BME280;51710;38.732;-121.358;2023-11-21T08:50:18;102102.25;;;8.82;76.79
64967;BME280;51710;38.732;-121.358;2023-11-21T08:52:45;102094.28;;;8.82;76.86
64967;BME280;51710;38.732;-121.358;2023-11-21T08:55:12;102094.47;;;8.79;77.08
64967;BME280;51710;38.732;-121.358;2023-11-21T08:57:39;102090.38;;;8.75;77.03
64967;BME280;51710;38.732;-121.358;2023-11-21T09:00:08;102086.00;;;8.74;76.97
64967;BME280;51710;38.732;-121.358;2023-11-21T09:02:38;102088.34;;;8.78;77.26
64967;BME280;51710;38.732;-121.358;2023-11-21T09:05:09;102080.66;;;8.86;77.62
64967;BME280;51710;38.732;-121.358;2023-11-21T09:07:36;102079.97;;;8.95;77.26
64967;BME280;51710;38.732;-121.358;2023-11-21T09:10:06;102081.09;;;9.04;77.50
64967;BME280;51710;38.732;-121.358;2023-11-21T09:12:34;102084.75;;;9.14;77.27
64967;BME280;51710;38.732;-121.358;2023-11-21T09:15:05;102077.78;;;9.24;77.42
64967;BME280;51710;38.732;-121.358;2023-11-21T09:17:34;102079.63;;;9.35;77.51
64967;BME280;51710;38.732;-121.358;2023-11-21T09:20:01;102076.03;;;9.47;77.72
64967;BME280;51710;38.732;-121.358;2023-11-21T09:22:31;102083.44;;;9.54;77.31
64967;BME280;51710;38.732;-121.358;2023-11-21T09:24:58;102089.03;;;9.62;77.45
64967;BME280;51710;38.732;-121.358;2023-11-21T09:27:24;102087.94;;;9.65;76.77
64967;BME280;51710;38.732;-121.358;2023-11-21T09:29:53;102090.56;;;9.54;76.56
64967;BME280;51710;38.732;-121.358;2023-11-21T09:32:20;102088.38;;;9.48;76.89
64967;BME280;51710;38.732;-121.358;2023-11-21T09:34:48;102096.13;;;9.51;77.28
64967;BME280;51710;38.732;-121.358;2023-11-21T09:37:15;102102.66;;;9.58;77.38
64967;BME280;51710;38.732;-121.358;2023-11-21T09:39:41;102108.38;;;9.64;77.28
64967;BME280;51710;38.732;-121.358;2023-11-21T09:42:15;102116.84;;;9.69;77.36
64967;BME280;51710;38.732;-121.358;2023-11-21T09:45:32;102115.53;;;9.75;77.17
64967;BME280;51710;38.732;-121.358;2023-11-21T09:47:35;102119.41;;;9.82;77.22
64967;BME280;51710;38.732;-121.358;2023-11-21T09:50:05;102130.44;;;9.88;77.19
64967;BME280;51710;38.732;-121.358;2023-11-21T09:52:48;102124.50;;;9.96;76.94
64967;BME280;51710;38.732;-121.358;2023-11-21T09:55:18;102127.19;;;9.96;76.39
64967;BME280;51710;38.732;-121.358;2023-11-21T09:57:50;102131.75;;;9.94;76.36
64967;BME280;51710;38.732;-121.358;2023-11-21T10:00:16;102135.16;;;9.96;76.87
64967;BME280;51710;38.732;-121.358;2023-11-21T10:02:49;102136.88;;;9.97;76.65
64967;BME280;51710;38.732;-121.358;2023-11-21T10:05:18;102146.78;;;9.95;76.56
64967;BME280;51710;38.732;-121.358;2023-11-21T10:07:49;102141.69;;;9.92;76.32
64967;BME280;51710;38.732;-121.358;2023-11-21T10:10:18;102143.63;;;9.90;76.29
64967;BME280;51710;38.732;-121.358;2023-11-21T10:13:06;102152.44;;;9.90;76.57
64967;BME280;51710;38.732;-121.358;2023-11-21T10:15:36;102155.00;;;9.92;76.19
64967;BME280;51710;38.732;-121.358;2023-11-21T10:18:03;102153.53;;;9.88;76.32
64967;BME280;51710;38.732;-121.358;2023-11-21T10:20:31;102155.22;;;9.78;76.08
64967;BME280;51710;38.732;-121.358;2023-11-21T10:22:57;102153.38;;;9.67;75.82
64967;BME280;51710;38.732;-121.358;2023-11-21T10:25:24;102157.78;;;9.56;75.89
64967;BME280;51710;38.732;-121.358;2023-11-21T10:27:57;102149.03;;;9.43;76.24
64967;BME280;51710;38.732;-121.358;2023-11-21T10:30:37;102153.56;;;9.30;76.42
64967;BME280;51710;38.732;-121.358;2023-11-21T10:33:05;102154.97;;;9.23;76.16
64967;BME280;51710;38.732;-121.358;2023-11-21T10:35:45;102151.19;;;9.14;76.39
64967;BME280;51710;38.732;-121.358;2023-11-21T10:38:21;102163.63;;;9.13;76.62
64967;BME280;51710;38.732;-121.358;2023-11-21T10:40:50;102167.25;;;9.13;76.82
64967;BME280;51710;38.732;-121.358;2023-11-21T10:43:17;102160.34;;;9.10;76.65
64967;BME280;51710;38.732;-121.358;2023-11-21T10:45:44;102157.28;;;9.03;76.88
64967;BME280;51710;38.732;-121.358;2023-11-21T10:48:13;102154.13;;;8.98;76.93
64967;BME280;51710;38.732;-121.358;2023-11-21T10:50:45;102154.47;;;8.94;77.15
64967;BME280;51710;38.732;-121.358;2023-11-21T10:53:12;102157.94;;;8.94;77.40
64967;BME280;51710;38.732;-121.358;2023-11-21T10:55:39;102159.19;;;9.01;77.57
64967;BME280;51710;38.732;-121.358;2023-11-21T10:58:06;102161.31;;;9.09;77.99
64967;BME280;51710;38.732;-121.358;2023-11-21T11:00:33;102167.63;;;9.19;77.80
64967;BME280;51710;38.732;-121.358;2023-11-21T11:03:00;102169.50;;;9.30;77.56
64967;BME280;51710;38.732;-121.358;2023-11-21T11:05:27;102171.50;;;9.39;77.77
64967;BME280;51710;38.732;-121.358;2023-11-21T11:08:06;102176.88;;;9.50;77.77
64967;BME280;51710;38.732;-121.358;2023-11-21T11:10:33;102176.19;;;9.59;77.80
64967;BME280;51710;38.732;-121.358;2023-11-21T11:13:00;102173.78;;;9.67;77.20
64967;BME280;51710;38.732;-121.358;2023-11-21T11:15:28;102175.03;;;9.74;77.30
64967;BME280;51710;38.732;-121.358;2023-11-21T11:17:54;102175.41;;;9.80;77.59
64967;BME280;51710;38.732;-121.358;2023-11-21T11:20:34;102173.22;;;9.85;77.05
64967;BME280;51710;38.732;-121.358;2023-11-21T11:26:24;102175.31;;;9.93;76.48
64967;BME280;51710;38.732;-121.358;2023-11-21T11:34:47;102165.16;;;9.98;76.53
64967;BME280;51710;38.732;-121.358;2023-11-21T11:37:15;102158.88;;;9.99;76.43
64967;BME280;51710;38.732;-121.358;2023-11-21T11:39:43;102158.97;;;9.97;76.67
64967;BME280;51710;38.732;-121.358;2023-11-21T11:42:13;102155.50;;;9.97;76.46
64967;BME280;51710;38.732;-121.358;2023-11-21T11:47:24;102150.88;;;9.99;76.37
64967;BME280;51710;38.732;-121.358;2023-11-21T11:50:09;102162.50;;;9.98;76.53
64967;BME280;51710;38.732;-121.358;2023-11-21T11:52:49;102151.00;;;9.97;76.89
64967;BME280;51710;38.732;-121.358;2023-11-21T11:55:19;102152.72;;;9.98;76.58
64967;BME280;51710;38.732;-121.358;2023-11-21T11:57:47;102165.03;;;9.99;76.60
64967;BME280;51710;38.732;-121.358;2023-11-21T12:00:16;102165.78;;;10.01;76.88
64967;BME280;51710;38.732;-121.358;2023-11-21T12:02:51;102180.75;;;10.02;77.11
64967;BME280;51710;38.732;-121.358;2023-11-21T12:05:19;102185.38;;;10.00;76.62
64967;BME280;51710;38.732;-121.358;2023-11-21T12:07:57;102197.66;;;9.90;77.01
64967;BME280;51710;38.732;-121.358;2023-11-21T12:10:28;102214.34;;;9.81;76.60
64967;BME280;51710;38.732;-121.358;2023-11-21T12:12:59;102221.19;;;9.73;76.74
64967;BME280;51710;38.732;-121.358;2023-11-21T12:15:26;102232.31;;;9.67;77.21
64967;BME280;51710;38.732;-121.358;2023-11-21T12:17:54;102226.25;;;9.65;77.63
64967;BME280;51710;38.732;-121.358;2023-11-21T12:20:24;102229.88;;;9.64;77.48
64967;BME280;51710;38.732;-121.358;2023-11-21T12:22:58;102221.41;;;9.59;77.23
64967;BME280;51710;38.732;-121.358;2023-11-21T12:25:27;102213.25;;;9.49;77.25
64967;BME280;51710;38.732;-121.358;2023-11-21T12:28:00;102214.16;;;9.37;77.19
64967;BME280;51710;38.732;-121.358;2023-11-21T12:30:36;102210.47;;;9.27;77.51
64967;BME280;51710;38.732;-121.358;2023-11-21T12:33:04;102204.72;;;9.21;77.60
64967;BME280;51710;38.732;-121.358;2023-11-21T12:35:34;102210.75;;;9.12;77.52
64967;BME280;51710;38.732;-121.358;2023-11-21T12:38:01;102212.16;;;9.04;77.86
64967;BME280;51710;38.732;-121.358;2023-11-21T12:40:34;102229.03;;;9.03;77.98
64967;BME280;51710;38.732;-121.358;2023-11-21T12:43:01;102238.72;;;9.04;78.34